Time;durP1;ratioP1;P1;durP2;ratioP2;P2;SDS_P1;SDS_P2;PMS_P1;PMS_P2;Temp;Humidity;BMP_temperature;BMP_pressure;BME280_temperature;BME280_humidity;BME280_pressure;Samples;Min_cycle;Max_cycle;Signal;HPM_P1;HPM_P2
2023/07/19 00:00:20;;;;;;;;;;;;;;;;;;4986462;28;20066;-78
2023/07/19 00:02:46;;;;;;;8.10;2.53;;;;;;;;;;4985249;28;20355;-78
2023/07/19 00:05:12;;;;;;;;;;;;;;;;;;4989749;28;20050;-78
2023/07/19 00:07:38;;;;;;;7.63;2.72;;;;;;;;;;4976045;28;20389;-77
2023/07/19 00:10:04;;;;;;;;;;;;;;;;;;4989328;28;20243;-78
2023/07/19 00:12:31;;;;;;;7.07;3.10;;;;;;;;;;4988673;28;20363;-77
2023/07/19 00:14:58;;;;;;;7.60;2.63;;;;;;;;;;4988634;28;20046;-77
2023/07/19 00:17:24;;;;;;;;;;;;;;;;;;5005937;28;20054;-78
2023/07/19 00:19:50;;;;;;;7.30;2.80;;;;;;;;;;4971622;28;20339;-77
2023/07/19 00:22:15;;;;;;;;;;;;;;;;;;5003476;28;20050;-77
2023/07/19 00:24:41;;;;;;;10.15;3.10;;;;;;;;;;4989122;28;19925;-77
2023/07/19 00:27:07;;;;;;;;;;;;;;;;;;4966640;28;20046;-77
2023/07/19 00:29:33;;;;;;;5.25;2.90;;;;;;;;;;4969495;28;19929;-78
2023/07/19 00:31:59;;;;;;;;;;;;;;;;;;5002225;28;20057;-78
2023/07/19 00:34:25;;;;;;;9.43;3.08;;;;;;;;;;4968340;28;19926;-77
2023/07/19 00:36:51;;;;;;;;;;;;;;;;;;4985499;28;20054;-77
2023/07/19 00:39:17;;;;;;;6.88;3.10;;;;;;;;;;4969604;28;19926;-77
2023/07/19 00:41:43;;;;;;;;;;;;;;;;;;5001876;28;20062;-77
2023/07/19 00:44:09;;;;;;;7.30;3.05;;;;;;;;;;4985129;28;20530;-77
2023/07/19 00:46:35;;;;;;;;;;;;;;;;;;5002671;28;20050;-77
2023/07/19 00:49:02;;;;;;;7.55;3.38;;;;;;;;;;4968367;28;19972;-78
2023/07/19 00:51:28;;;;;;;9.95;3.65;;;;;;;;;;5002103;28;20073;-79
2023/07/19 00:53:54;;;;;;;5.85;3.10;;;;;;;;;;5017333;28;20086;-78
2023/07/19 00:56:21;;;;;;;5.97;3.30;;;;;;;;;;4978321;28;20062;-79
2023/07/19 00:58:50;;;;;;;9.65;3.97;;;;;;;;;;5001343;28;20112;-78
2023/07/19 01:01:16;;;;;;;7.18;3.50;;;;;;;;;;5004500;28;20046;-78
2023/07/19 01:03:42;;;;;;;;;;;;;;;;;;4971460;28;20050;-78
2023/07/19 01:06:08;;;;;;;8.82;3.75;;;;;;;;;;4982477;28;19929;-79
2023/07/19 01:08:35;;;;;;;9.93;3.60;;;;;;;;;;4969173;28;20043;-78
2023/07/19 01:11:01;;;;;;;8.18;3.50;;;;;;;;;;4968698;28;20480;-78
2023/07/19 01:13:27;;;;;;;9.50;3.97;;;;;;;;;;4968719;28;20518;-78
2023/07/19 01:15:53;;;;;;;11.65;4.28;;;;;;;;;;4992946;28;20059;-83
2023/07/19 01:18:19;;;;;;;;;;;;;;;;;;4952867;28;20059;-78
2023/07/19 01:20:46;;;;;;;8.43;4.07;;;;;;;;;;4969385;28;20524;-80
2023/07/19 01:23:12;;;;;;;9.63;4.28;;;;;;;;;;4985321;28;20043;-77
2023/07/19 01:25:38;;;;;;;9.00;4.22;;;;;;;;;;4968948;28;20480;-80
2023/07/19 01:28:04;;;;;;;;;;;;;;;;;;4984692;28;20431;-77
2023/07/19 01:30:31;;;;;;;8.52;4.22;;;;;;;;;;4952918;28;19936;-78
2023/07/19 01:32:57;;;;;;;13.45;4.18;;;;;;;;;;4971762;28;20729;-78
2023/07/19 01:35:23;;;;;;;8.48;3.78;;;;;;;;;;5004653;28;20403;-77
2023/07/19 01:37:49;;;;;;;;;;;;;;;;;;4970001;28;20057;-78
2023/07/19 01:40:15;;;;;;;8.45;4.40;;;;;;;;;;4967703;28;19918;-77
2023/07/19 01:42:41;;;;;;;;;;;;;;;;;;4985163;28;20051;-78
2023/07/19 01:45:07;;;;;;;7.82;4.18;;;;;;;;;;4968239;28;20032;-78
2023/07/19 01:47:34;;;;;;;7.45;4.18;;;;;;;;;;4979722;28;20073;-78
2023/07/19 01:50:00;;;;;;;9.82;4.10;;;;;;;;;;4986800;28;20056;-78
2023/07/19 01:52:26;;;;;;;10.35;4.05;;;;;;;;;;4985993;28;20086;-77
2023/07/19 01:54:52;;;;;;;9.95;4.40;;;;;;;;;;4987970;28;20100;-77
2023/07/19 01:57:18;;;;;;;;;;;;;;;;;;4979462;28;20062;-77
2023/07/19 01:59:44;;;;;;;7.72;4.05;;;;;;;;;;4968202;28;19926;-78
2023/07/19 02:02:10;;;;;;;;;;;;;;;;;;5002081;28;20046;-77
2023/07/19 02:04:36;;;;;;;10.30;4.78;;;;;;;;;;4987225;28;19922;-78
2023/07/19 02:07:02;;;;;;;;;;;;;;;;;;5003916;28;20081;-78
2023/07/19 02:09:28;;;;;;;12.13;4.50;;;;;;;;;;4987926;28;19983;-77
2023/07/19 02:11:54;;;;;;;;;;;;;;;;;;4988108;28;20050;-78
2023/07/19 02:14:21;;;;;;;7.78;4.43;;;;;;;;;;4971025;28;19925;-77
2023/07/19 02:16:47;;;;;;;7.45;4.45;;;;;;;;;;4987671;28;20518;-77
2023/07/19 02:19:13;;;;;;;;;;;;;;;;;;4972396;28;20050;-77
2023/07/19 02:21:40;;;;;;;8.95;4.68;;;;;;;;;;4971814;28;19926;-77
2023/07/19 02:24:06;;;;;;;9.05;4.72;;;;;;;;;;4987510;28;20513;-78
2023/07/19 02:26:32;;;;;;;;;;;;;;;;;;4971532;28;20559;-78
2023/07/19 02:28:58;;;;;;;10.43;4.70;;;;;;;;;;4986481;28;20005;-82
2023/07/19 02:31:24;;;;;;;;;;;;;;;;;;5007293;28;20042;-78
2023/07/19 02:33:50;;;;;;;9.77;4.68;;;;;;;;;;4974238;28;20008;-79
2023/07/19 02:36:16;;;;;;;;;;;;;;;;;;4990970;28;20042;-78
2023/07/19 02:38:44;;;;;;;9.45;5.05;;;;;;;;;;4974301;28;19928;-77
2023/07/19 02:41:10;;;;;;;12.18;5.03;;;;;;;;;;4973865;28;20108;-77
2023/07/19 02:43:36;;;;;;;11.52;5.78;;;;;;;;;;4980143;28;20561;-78
2023/07/19 02:46:02;;;;;;;10.57;5.55;;;;;;;;;;5012005;28;20069;-83
2023/07/19 02:48:28;;;;;;;;;;;;;;;;;;5001791;28;20050;-77
2023/07/19 02:50:54;;;;;;;10.43;5.13;;;;;;;;;;4971653;28;19988;-77
2023/07/19 02:53:20;;;;;;;;;;;;;;;;;;4955046;28;20051;-78
2023/07/19 02:55:46;;;;;;;8.15;4.90;;;;;;;;;;4987549;28;19922;-77
2023/07/19 02:58:14;;;;;;;11.30;5.10;;;;;;;;;;4970005;28;20042;-79
2023/07/19 03:00:43;;;;;;;11.65;5.53;;;;;;;;;;4970813;28;20134;-77
2023/07/19 03:03:10;;;;;;;10.80;5.43;;;;;;;;;;4969910;28;20080;-77
2023/07/19 03:05:42;;;;;;;14.35;5.57;;;;;;;;;;4971123;28;20047;-78
2023/07/19 03:08:08;;;;;;;12.90;5.22;;;;;;;;;;5004501;28;20435;-79
2023/07/19 03:10:34;;;;;;;13.45;5.57;;;;;;;;;;5008962;28;20047;-78
2023/07/19 03:13:00;;;;;;;9.32;5.25;;;;;;;;;;4970357;28;20130;-78
2023/07/19 03:15:27;;;;;;;10.73;5.93;;;;;;;;;;4988988;28;20086;-78
2023/07/19 03:17:53;;;;;;;12.73;5.68;;;;;;;;;;4989672;28;20111;-77
2023/07/19 03:20:19;;;;;;;;;;;;;;;;;;5006459;28;20093;-78
2023/07/19 03:22:45;;;;;;;12.82;6.05;;;;;;;;;;4976896;28;19973;-78
2023/07/19 03:25:11;;;;;;;;;;;;;;;;;;4987348;28;20506;-78
2023/07/19 03:27:37;;;;;;;11.73;5.90;;;;;;;;;;4970446;28;20008;-79
2023/07/19 03:30:06;;;;;;;;;;;;;;;;;;4961870;28;20104;-82
2023/07/19 03:32:33;;;;;;;11.77;5.72;;;;;;;;;;4990299;28;19948;-77
2023/07/19 03:34:59;;;;;;;14.25;5.60;;;;;;;;;;4973280;28;20111;-77
2023/07/19 03:37:25;;;;;;;;;;;;;;;;;;4990098;28;20345;-77
2023/07/19 03:39:51;;;;;;;15.57;6.05;;;;;;;;;;4982900;28;19964;-78
2023/07/19 03:42:17;;;;;;;12.88;6.10;;;;;;;;;;4974667;28;20081;-77
2023/07/19 03:44:43;;;;;;;;;;;;;;;;;;5006677;28;20047;-77
2023/07/19 03:47:10;;;;;;;11.65;6.68;;;;;;;;;;4989492;28;19933;-77
2023/07/19 03:49:36;;;;;;;12.77;6.60;;;;;;;;;;4972899;28;20047;-78
2023/07/19 03:52:02;;;;;;;;;;;;;;;;;;4990316;28;20498;-78
2023/07/19 03:54:28;;;;;;;12.95;6.70;;;;;;;;;;5005712;28;19922;-77
2023/07/19 03:56:54;;;;;;;13.07;7.55;;;;;;;;;;5020763;28;20050;-78
2023/07/19 03:59:20;;;;;;;;;;;;;;;;;;4993605;28;20050;-78
2023/07/19 04:01:46;;;;;;;19.73;9.45;;;;;;;;;;4991541;28;20442;-76
2023/07/19 04:04:12;;;;;;;;;;;;;;;;;;4943127;28;20133;-76
2023/07/19 04:06:38;;;;;;;18.88;11.43;;;;;;;;;;5007333;28;19968;-77
2023/07/19 04:09:04;;;;;;;18.02;11.02;;;;;;;;;;4977810;28;20082;-77
2023/07/19 04:11:30;;;;;;;;;;;;;;;;;;4993240;28;20046;-77
2023/07/19 04:13:56;;;;;;;19.98;10.18;;;;;;;;;;5015715;28;20401;-78
2023/07/19 04:16:22;;;;;;;;;;;;;;;;;;5007885;28;20050;-77
2023/07/19 04:18:48;;;;;;;21.23;11.23;;;;;;;;;;5007268;28;20426;-77
2023/07/19 04:21:14;;;;;;;16.77;11.88;;;;;;;;;;5007085;28;20085;-77
2023/07/19 04:23:40;;;;;;;;;;;;;;;;;;5007591;28;20430;-77
2023/07/19 04:26:06;;;;;;;24.58;12.52;;;;;;;;;;4991168;28;19936;-77
2023/07/19 04:28:32;;;;;;;;;;;;;;;;;;5006655;28;20050;-77
2023/07/19 04:30:59;;;;;;;28.27;13.10;;;;;;;;;;5007103;28;20256;-77
2023/07/19 04:33:25;;;;;;;18.50;12.30;;;;;;;;;;4975136;28;20065;-77
2023/07/19 04:35:51;;;;;;;;;;;;;;;;;;4974733;28;20633;-79
2023/07/19 04:38:17;;;;;;;18.23;12.18;;;;;;;;;;4990420;28;19973;-77
2023/07/19 04:40:43;;;;;;;;;;;;;;;;;;4993279;28;20050;-76
2023/07/19 04:43:09;;;;;;;18.58;11.68;;;;;;;;;;5025420;28;19971;-77
2023/07/19 04:45:35;;;;;;;;;;;;;;;;;;4993255;28;20046;-76
2023/07/19 04:48:03;;;;;;;18.77;12.25;;;;;;;;;;5025326;28;19931;-77
2023/07/19 04:50:29;;;;;;;17.73;11.52;;;;;;;;;;4992726;28;20182;-77
2023/07/19 04:52:55;;;;;;;;;;;;;;;;;;5009695;28;20046;-79
2023/07/19 04:55:21;;;;;;;24.63;12.63;;;;;;;;;;5025074;28;19974;-77
2023/07/19 04:57:47;;;;;;;17.05;11.27;;;;;;;;;;4992351;28;20050;-77
2023/07/19 05:00:14;;;;;;;;;;;;;;;;;;4973612;28;20046;-83
2023/07/19 05:02:40;;;;;;;19.17;11.82;;;;;;;;;;4972871;28;20020;-80
2023/07/19 05:05:07;;;;;;;15.80;11.32;;;;;;;;;;4973203;28;20050;-76
2023/07/19 05:07:37;;;;;;;19.05;12.35;;;;;;;;;;4998588;28;20046;-78
2023/07/19 05:10:04;;;;;;;17.48;10.07;;;;;;;;;;4992351;28;20096;-76
2023/07/19 05:12:30;;;;;;;21.02;10.80;;;;;;;;;;4975485;28;20406;-76
2023/07/19 05:14:57;;;;;;;17.08;8.98;;;;;;;;;;4991979;28;20187;-76
2023/07/19 05:17:23;;;;;;;14.32;9.02;;;;;;;;;;4991595;28;20041;-77
2023/07/19 05:19:49;;;;;;;;;;;;;;;;;;4979792;28;20403;-77
2023/07/19 05:22:15;;;;;;;11.80;6.80;;;;;;;;;;5004830;28;19922;-81
2023/07/19 05:24:41;;;;;;;;;;;;;;;;;;5005827;28;20053;-77
2023/07/19 05:27:07;;;;;;;15.70;7.18;;;;;;;;;;4972246;28;19922;-77
2023/07/19 05:29:33;;;;;;;;;;;;;;;;;;4988632;28;20339;-78
2023/07/19 05:31:59;;;;;;;12.73;5.90;;;;;;;;;;4972625;28;20014;-78
2023/07/19 05:34:25;;;;;;;;;;;;;;;;;;5004484;28;20050;-77
2023/07/19 05:36:51;;;;;;;13.30;5.45;;;;;;;;;;4972545;28;19929;-79
2023/07/19 05:39:17;;;;;;;9.90;4.75;;;;;;;;;;5005312;28;20059;-78
2023/07/19 05:41:43;;;;;;;;;;;;;;;;;;5006375;28;20067;-79
2023/07/19 05:44:09;;;;;;;9.82;4.63;;;;;;;;;;4991508;28;19986;-77
2023/07/19 05:46:38;;;;;;;;;;;;;;;;;;4974839;28;20196;-78
2023/07/19 05:49:04;;;;;;;8.80;4.82;;;;;;;;;;4990751;28;19921;-77
2023/07/19 05:51:31;;;;;;;9.70;4.50;;;;;;;;;;4991284;28;20050;-77
2023/07/19 05:53:57;;;;;;;;;;;;;;;;;;4975184;28;20107;-77
2023/07/19 05:56:23;;;;;;;11.18;4.30;;;;;;;;;;5007373;28;20286;-78
2023/07/19 05:58:51;;;;;;;;;;;;;;;;;;4992066;28;20376;-77
2023/07/19 06:01:17;;;;;;;6.05;3.00;;;;;;;;;;4991441;28;20307;-83
2023/07/19 06:03:47;;;;;;;7.32;4.05;;;;;;;;;;4971905;28;20130;-77
2023/07/19 06:06:14;;;;;;;9.40;3.67;;;;;;;;;;5007991;28;20046;-77
2023/07/19 06:08:40;;;;;;;6.68;3.60;;;;;;;;;;4991229;28;20100;-77
2023/07/19 06:11:06;;;;;;;7.05;2.92;;;;;;;;;;4975562;28;20046;-78
2023/07/19 06:13:33;;;;;;;12.65;3.85;;;;;;;;;;4982171;28;20506;-79
2023/07/19 06:15:58;;;;;;;;;;;;;;;;;;4940438;28;20133;-78
2023/07/19 06:18:25;;;;;;;7.20;3.40;;;;;;;;;;5003344;28;20004;-77
2023/07/19 06:20:51;;;;;;;7.93;3.17;;;;;;;;;;4988075;28;20183;-77
2023/07/19 06:23:17;;;;;;;;;;;;;;;;;;4956384;28;20042;-77
2023/07/19 06:25:45;;;;;;;6.25;2.95;;;;;;;;;;5009817;28;19929;-77
2023/07/19 06:28:11;;;;;;;8.82;3.67;;;;;;;;;;4973578;28;20050;-77
2023/07/19 06:30:37;;;;;;;;;;;;;;;;;;4990813;28;20289;-73
2023/07/19 06:33:03;;;;;;;8.10;3.33;;;;;;;;;;5006521;28;20402;-72
2023/07/19 06:35:30;;;;;;;6.57;2.85;;;;;;;;;;5007614;28;20046;-77
2023/07/19 06:37:55;;;;;;;;;;;;;;;;;;4990729;28;20045;-77
2023/07/19 06:40:22;;;;;;;7.60;3.60;;;;;;;;;;4973107;28;19922;-76
2023/07/19 06:42:48;;;;;;;7.45;3.00;;;;;;;;;;4989928;28;20106;-74
2023/07/19 06:45:14;;;;;;;;;;;;;;;;;;5008347;28;20045;-77
2023/07/19 06:47:40;;;;;;;7.55;3.42;;;;;;;;;;4986500;28;20499;-77
2023/07/19 06:50:06;;;;;;;8.77;3.75;;;;;;;;;;4990750;28;20081;-77
2023/07/19 06:52:32;;;;;;;8.55;3.40;;;;;;;;;;4974446;28;20493;-78
2023/07/19 06:54:58;;;;;;;;;;;;;;;;;;5004706;28;20051;-76
2023/07/19 06:57:24;;;;;;;7.93;3.35;;;;;;;;;;5024378;28;20401;-76
2023/07/19 06:59:50;;;;;;;;;;;;;;;;;;4992268;28;20042;-76
2023/07/19 07:02:18;;;;;;;7.70;3.20;;;;;;;;;;5025082;28;19922;-76
2023/07/19 07:04:45;;;;;;;6.55;3.25;;;;;;;;;;4976592;28;20057;-76
2023/07/19 07:07:11;;;;;;;8.73;3.30;;;;;;;;;;5006156;28;20042;-76
2023/07/19 07:09:37;;;;;;;6.57;2.80;;;;;;;;;;4991834;28;20068;-77
2023/07/19 07:12:04;;;;;;;9.88;3.75;;;;;;;;;;4991125;28;20046;-76
2023/07/19 07:14:31;;;;;;;5.65;2.65;;;;;;;;;;4975462;28;20053;-77
2023/07/19 07:16:57;;;;;;;8.27;2.70;;;;;;;;;;4975863;28;20058;-76
2023/07/19 07:19:23;;;;;;;;;;;;;;;;;;4989882;28;20098;-84
2023/07/19 07:21:49;;;;;;;4.47;2.40;;;;;;;;;;5026970;28;20016;-76
2023/07/19 07:24:15;;;;;;;;;;;;;;;;;;4995763;28;20133;-77
2023/07/19 07:26:41;;;;;;;4.93;2.30;;;;;;;;;;5010943;28;20382;-75
2023/07/19 07:29:07;;;;;;;;;;;;;;;;;;4995210;28;20050;-76
2023/07/19 07:31:33;;;;;;;5.88;2.15;;;;;;;;;;5027418;28;19925;-76
2023/07/19 07:33:59;;;;;;;5.18;2.30;;;;;;;;;;4978820;28;20433;-80
2023/07/19 07:36:25;;;;;;;;;;;;;;;;;;5011680;28;20052;-81
2023/07/19 07:38:51;;;;;;;6.20;2.35;;;;;;;;;;5011187;28;19921;-76
2023/07/19 07:41:17;;;;;;;;;;;;;;;;;;5011415;28;20394;-76
2023/07/19 07:43:43;;;;;;;5.40;2.30;;;;;;;;;;5027057;28;19921;-76
2023/07/19 07:46:09;;;;;;;4.88;2.25;;;;;;;;;;4994872;28;20132;-74
2023/07/19 07:48:35;;;;;;;;;;;;;;;;;;4990883;28;20159;-78
2023/07/19 07:51:01;;;;;;;8.25;2.03;;;;;;;;;;4974884;28;19931;-77
2023/07/19 07:53:27;;;;;;;;;;;;;;;;;;4991355;28;20068;-72
2023/07/19 07:55:53;;;;;;;5.55;2.20;;;;;;;;;;4990825;28;19951;-71
2023/07/19 07:58:19;;;;;;;5.35;2.22;;;;;;;;;;4974909;28;20062;-71
2023/07/19 08:00:45;;;;;;;;;;;;;;;;;;5010091;28;20506;-71
2023/07/19 08:03:11;;;;;;;4.13;1.70;;;;;;;;;;5024857;28;19963;-71
2023/07/19 08:05:38;;;;;;;4.60;2.03;;;;;;;;;;5009660;28;20122;-69
2023/07/19 08:08:05;;;;;;;7.88;2.28;;;;;;;;;;5010057;28;20065;-76
2023/07/19 08:10:32;;;;;;;5.22;2.30;;;;;;;;;;4976137;28;20050;-77
2023/07/19 08:12:58;;;;;;;6.68;2.03;;;;;;;;;;5007797;28;20046;-76
2023/07/19 08:15:24;;;;;;;;;;;;;;;;;;4979646;28;20125;-76
2023/07/19 08:17:50;;;;;;;6.90;2.47;;;;;;;;;;5011480;28;20066;-76
2023/07/19 08:20:16;;;;;;;5.72;2.38;;;;;;;;;;4978944;28;20038;-75
2023/07/19 08:22:42;;;;;;;;;;;;;;;;;;4997721;28;20049;-74
2023/07/19 08:25:09;;;;;;;6.18;2.20;;;;;;;;;;4978227;28;19963;-74
2023/07/19 08:27:35;;;;;;;5.07;2.30;;;;;;;;;;4971034;28;20050;-75
2023/07/19 08:30:04;;;;;;;;;;;;;;;;;;4998410;28;20045;-74
2023/07/19 08:32:32;;;;;;;6.90;2.30;;;;;;;;;;4989021;28;19926;-74
2023/07/19 08:34:58;;;;;;;5.78;3.10;;;;;;;;;;5003285;28;20171;-75
2023/07/19 08:37:24;;;;;;;;;;;;;;;;;;4988340;28;20503;-75
2023/07/19 08:39:50;;;;;;;4.72;2.38;;;;;;;;;;5012325;28;19927;-75
2023/07/19 08:42:16;;;;;;;5.13;2.53;;;;;;;;;;4986859;28;20050;-75
2023/07/19 08:44:42;;;;;;;;;;;;;;;;;;4988935;28;20054;-76
2023/07/19 08:47:11;;;;;;;7.28;2.58;;;;;;;;;;4990975;28;19922;-72
2023/07/19 08:49:37;;;;;;;5.72;2.85;;;;;;;;;;4995354;28;20051;-78
2023/07/19 08:52:06;;;;;;;6.60;2.35;;;;;;;;;;4983314;28;20095;-75
2023/07/19 08:54:32;;;;;;;8.35;2.72;;;;;;;;;;5000574;28;20053;-87
2023/07/19 08:56:58;;;;;;;5.88;2.42;;;;;;;;;;4975906;28;20093;-79
2023/07/19 08:59:25;;;;;;;4.75;2.45;;;;;;;;;;4993338;28;20081;-80
2023/07/19 09:01:51;;;;;;;8.38;2.50;;;;;;;;;;4977086;28;20046;-80
2023/07/19 09:04:17;;;;;;;6.22;2.35;;;;;;;;;;4984112;28;20042;-79
2023/07/19 09:06:43;;;;;;;;;;;;;;;;;;4980980;28;20080;-79
2023/07/19 09:09:10;;;;;;;4.82;2.17;;;;;;;;;;4987684;28;19921;-79
2023/07/19 09:11:36;;;;;;;8.50;2.20;;;;;;;;;;4961537;28;20096;-81
2023/07/19 09:14:02;;;;;;;4.13;2.13;;;;;;;;;;4984346;28;20042;-79
2023/07/19 09:16:28;;;;;;;;;;;;;;;;;;5003487;28;20050;-79
2023/07/19 09:18:54;;;;;;;6.10;2.33;;;;;;;;;;5005892;28;19956;-79
2023/07/19 09:21:40;;;;;;;6.57;2.20;;;;;;;;;;4974088;28;20116;-80
2023/07/19 09:24:07;;;;;;;6.00;2.13;;;;;;;;;;5013997;28;20509;-79
2023/07/19 09:26:53;;;;;;;5.38;2.10;;;;;;;;;;4975759;28;20451;-83
2023/07/19 09:29:19;;;;;;;5.95;1.80;;;;;;;;;;4973179;28;20081;-79
2023/07/19 09:31:55;;;;;;;5.50;1.90;;;;;;;;;;5006369;28;20094;-79
2023/07/19 09:34:22;;;;;;;7.35;2.10;;;;;;;;;;4976341;28;20132;-82
2023/07/19 09:36:48;;;;;;;7.90;2.35;;;;;;;;;;4982569;28;20073;-78
2023/07/19 09:39:15;;;;;;;7.07;2.20;;;;;;;;;;4980522;28;20153;-70
2023/07/19 09:41:41;;;;;;;5.25;1.90;;;;;;;;;;4993337;28;20076;-71
2023/07/19 09:44:09;;;;;;;5.47;2.00;;;;;;;;;;5019642;28;20083;-71
2023/07/19 09:46:36;;;;;;;3.92;2.00;;;;;;;;;;5007009;28;20054;-71
2023/07/19 09:49:02;;;;;;;3.97;2.22;;;;;;;;;;5006130;28;20042;-70
2023/07/19 09:51:31;;;;;;;7.45;2.22;;;;;;;;;;4998531;28;20188;-70
2023/07/19 09:54:00;;;;;;;9.77;2.25;;;;;;;;;;4987520;28;20054;-73
2023/07/19 09:56:26;;;;;;;5.85;2.10;;;;;;;;;;4985990;28;20046;-71
2023/07/19 09:58:52;;;;;;;6.28;2.28;;;;;;;;;;5001603;28;20126;-70
2023/07/19 10:01:19;;;;;;;5.60;2.20;;;;;;;;;;4989818;28;20552;-70
2023/07/19 10:03:45;;;;;;;5.00;1.75;;;;;;;;;;4985690;28;20054;-71
2023/07/19 10:06:14;;;;;;;7.22;2.55;;;;;;;;;;5002149;28;20060;-72
2023/07/19 10:08:40;;;;;;;4.65;1.95;;;;;;;;;;5007038;28;20076;-72
2023/07/19 10:11:07;;;;;;;5.07;2.10;;;;;;;;;;5007466;28;20064;-70
2023/07/19 10:13:53;;;;;;;5.28;2.55;;;;;;;;;;5006472;28;20050;-72
2023/07/19 10:16:34;;;;;;;6.72;2.72;;;;;;;;;;4987370;28;20046;-71
2023/07/19 10:19:10;;;;;;;5.15;2.00;;;;;;;;;;5015216;28;20400;-78
2023/07/19 10:21:36;;;;;;;5.80;2.20;;;;;;;;;;4989973;28;20046;-78
2023/07/19 10:24:07;;;;;;;6.10;1.92;;;;;;;;;;4973747;28;20053;-78
2023/07/19 10:26:36;;;;;;;6.45;2.00;;;;;;;;;;4989333;28;20099;-77
2023/07/19 10:29:03;;;;;;;6.35;2.10;;;;;;;;;;5019259;28;20050;-78
2023/07/19 10:31:29;;;;;;;4.78;1.95;;;;;;;;;;5020389;28;20503;-76
2023/07/19 10:33:56;;;;;;;6.55;2.20;;;;;;;;;;5073931;28;20058;-76
2023/07/19 10:36:22;;;;;;;6.65;2.00;;;;;;;;;;5009112;28;20042;-76
2023/07/19 10:38:48;;;;;;;4.95;2.58;;;;;;;;;;4989542;28;20403;-76
2023/07/19 10:41:15;;;;;;;9.10;2.60;;;;;;;;;;4976897;28;20058;-76
2023/07/19 10:43:42;;;;;;;5.57;1.85;;;;;;;;;;4992924;28;20077;-77
2023/07/19 10:46:10;;;;;;;3.83;1.88;;;;;;;;;;5011478;28;20049;-75
2023/07/19 10:48:36;;;;;;;4.80;1.90;;;;;;;;;;4993257;28;20061;-78
2023/07/19 10:51:04;;;;;;;6.40;1.80;;;;;;;;;;4989042;28;20061;-76
2023/07/19 10:53:32;;;;;;;5.60;1.90;;;;;;;;;;5006794;28;20046;-69
2023/07/19 10:55:58;;;;;;;6.82;2.03;;;;;;;;;;4991168;28;20050;-71
2023/07/19 10:58:25;;;;;;;6.43;2.10;;;;;;;;;;4993277;28;20054;-71
2023/07/19 11:00:54;;;;;;;5.00;1.67;;;;;;;;;;4989641;28;20043;-72
2023/07/19 11:03:22;;;;;;;5.13;1.88;;;;;;;;;;4989411;28;20046;-71
2023/07/19 11:05:49;;;;;;;3.13;1.52;;;;;;;;;;5001797;28;20525;-71
2023/07/19 11:08:25;;;;;;;4.15;1.58;;;;;;;;;;5010158;28;20075;-69
2023/07/19 11:10:52;;;;;;;4.88;1.30;;;;;;;;;;4985853;28;20050;-71
2023/07/19 11:13:19;;;;;;;3.97;1.48;;;;;;;;;;5000872;28;20042;-73
2023/07/19 11:15:49;;;;;;;1.50;1.10;;;;;;;;;;4982110;28;20050;-73
2023/07/19 11:18:27;;;;;;;4.47;1.20;;;;;;;;;;5002124;28;20050;-72
2023/07/19 11:20:54;;;;;;;4.78;1.38;;;;;;;;;;5002737;28;20050;-73
2023/07/19 11:23:20;;;;;;;3.72;1.38;;;;;;;;;;5010171;28;20049;-73
2023/07/19 11:25:47;;;;;;;2.80;1.20;;;;;;;;;;5009091;28;20081;-75
2023/07/19 11:28:13;;;;;;;3.03;1.25;;;;;;;;;;4992575;28;20125;-73
2023/07/19 11:30:40;;;;;;;4.20;1.20;;;;;;;;;;4988559;28;20709;-75
2023/07/19 11:33:08;;;;;;;3.85;1.65;;;;;;;;;;4986608;28;20041;-80
2023/07/19 11:35:34;;;;;;;2.83;1.40;;;;;;;;;;4975497;28;20054;-80
2023/07/19 11:38:01;;;;;;;5.63;1.55;;;;;;;;;;4987727;28;20070;-79
2023/07/19 11:40:27;;;;;;;7.90;1.67;;;;;;;;;;4984868;28;20066;-77
2023/07/19 11:42:54;;;;;;;3.03;1.50;;;;;;;;;;4974933;28;20100;-80
2023/07/19 11:45:27;;;;;;;3.03;1.70;;;;;;;;;;4980800;28;20107;-79
2023/07/19 11:47:58;;;;;;;5.53;1.50;;;;;;;;;;4992485;28;20506;-80
2023/07/19 11:50:24;;;;;;;2.85;1.50;;;;;;;;;;4994267;28;20053;-81
2023/07/19 11:52:54;;;;;;;2.20;1.27;;;;;;;;;;4993186;28;20042;-80
2023/07/19 11:55:21;;;;;;;2.95;1.00;;;;;;;;;;5003485;28;20045;-83
2023/07/19 11:57:48;;;;;;;4.60;1.30;;;;;;;;;;5059169;28;20091;-86
2023/07/19 12:00:14;;;;;;;3.92;1.45;;;;;;;;;;4993596;28;20503;-80
2023/07/19 12:02:43;;;;;;;3.65;1.35;;;;;;;;;;4993675;28;20088;-83
2023/07/19 12:05:10;;;;;;;4.18;1.50;;;;;;;;;;5008600;28;20050;-80
2023/07/19 12:07:36;;;;;;;3.03;1.55;;;;;;;;;;4978269;28;20052;-81
2023/07/19 12:10:04;;;;;;;2.65;1.35;;;;;;;;;;4980870;28;20465;-80
2023/07/19 12:12:30;;;;;;;3.90;1.40;;;;;;;;;;4986804;28;20073;-78
2023/07/19 12:14:56;;;;;;;3.30;1.20;;;;;;;;;;4980465;28;20182;-78
2023/07/19 12:17:22;;;;;;;2.55;1.10;;;;;;;;;;5006793;28;20159;-77
2023/07/19 12:19:48;;;;;;;4.70;1.60;;;;;;;;;;4978941;28;20042;-83
2023/07/19 12:22:14;;;;;;;4.57;1.30;;;;;;;;;;4989374;28;20084;-70
2023/07/19 12:24:40;;;;;;;2.08;1.02;;;;;;;;;;5010116;28;20065;-77
2023/07/19 12:27:06;;;;;;;4.85;1.40;;;;;;;;;;5010765;28;20487;-75
2023/07/19 12:29:32;;;;;;;1.98;1.10;;;;;;;;;;5079316;28;20085;-82
2023/07/19 12:31:58;;;;;;;3.05;1.50;;;;;;;;;;4976085;28;20094;-75
2023/07/19 12:34:25;;;;;;;4.30;1.50;;;;;;;;;;4993187;28;20053;-75
2023/07/19 12:36:51;;;;;;;4.28;1.70;;;;;;;;;;5007604;28;20043;-81
2023/07/19 12:39:20;;;;;;;3.25;1.60;;;;;;;;;;4990364;28;20138;-75
2023/07/19 12:41:46;;;;;;;7.40;2.15;;;;;;;;;;5010768;28;20502;-75
2023/07/19 12:44:12;;;;;;;6.85;2.03;;;;;;;;;;4992042;28;20488;-69
2023/07/19 12:46:40;;;;;;;6.45;2.00;;;;;;;;;;5009507;28;20126;-70
2023/07/19 12:49:06;;;;;;;7.15;2.30;;;;;;;;;;5007774;28;20107;-70
2023/07/19 12:51:34;;;;;;;5.43;2.10;;;;;;;;;;5009424;28;20053;-69
2023/07/19 12:54:00;;;;;;;6.82;2.40;;;;;;;;;;5009103;28;20506;-68
2023/07/19 12:56:27;;;;;;;4.60;2.40;;;;;;;;;;5009018;28;20050;-71
2023/07/19 12:58:55;;;;;;;6.00;2.40;;;;;;;;;;5009009;28;20100;-74
2023/07/19 13:01:21;;;;;;;8.63;2.47;;;;;;;;;;5007339;28;20061;-69
2023/07/19 13:03:47;;;;;;;6.65;2.60;;;;;;;;;;4990721;28;20093;-68
2023/07/19 13:06:14;;;;;;;5.10;2.55;;;;;;;;;;4990131;28;20094;-68
2023/07/19 13:08:40;;;;;;;5.47;2.30;;;;;;;;;;4989476;28;20077;-69
2023/07/19 13:11:06;;;;;;;3.72;1.67;;;;;;;;;;4989096;28;20107;-68
2023/07/19 13:13:32;;;;;;;2.22;1.20;;;;;;;;;;5006606;28;20050;-67
2023/07/19 13:15:58;;;;;;;5.88;1.45;;;;;;;;;;5008541;28;20132;-67
2023/07/19 13:18:25;;;;;;;3.60;1.60;;;;;;;;;;4989418;28;20492;-68
2023/07/19 13:20:53;;;;;;;4.82;1.95;;;;;;;;;;4989445;28;20049;-68
2023/07/19 13:23:19;;;;;;;3.83;1.60;;;;;;;;;;4971724;28;20483;-72
2023/07/19 13:25:45;;;;;;;4.47;1.52;;;;;;;;;;4997060;28;20074;-74
2023/07/19 13:28:11;;;;;;;5.18;1.45;;;;;;;;;;4998268;28;20451;-70
2023/07/19 13:30:40;;;;;;;6.25;1.55;;;;;;;;;;4987009;28;20053;-77
2023/07/19 13:33:06;;;;;;;4.55;2.08;;;;;;;;;;4988761;28;20041;-70
2023/07/19 13:35:32;;;;;;;7.90;2.10;;;;;;;;;;5003693;28;20076;-76
2023/07/19 13:37:58;;;;;;;5.85;2.25;;;;;;;;;;4973041;28;20049;-82
2023/07/19 13:40:26;;;;;;;4.65;2.03;;;;;;;;;;4988672;28;20131;-75
2023/07/19 13:42:53;;;;;;;8.02;2.70;;;;;;;;;;5001595;28;20054;-75
2023/07/19 13:45:19;;;;;;;6.35;2.70;;;;;;;;;;5001274;28;20041;-76
2023/07/19 13:47:45;;;;;;;8.10;2.67;;;;;;;;;;5007056;28;20046;-73
2023/07/19 13:50:11;;;;;;;5.55;2.40;;;;;;;;;;5007586;28;20042;-75
2023/07/19 13:52:37;;;;;;;5.57;2.50;;;;;;;;;;5000560;28;20149;-75
2023/07/19 13:55:04;;;;;;;7.80;2.58;;;;;;;;;;5003012;28;20035;-75
2023/07/19 13:57:30;;;;;;;6.18;2.47;;;;;;;;;;4988169;28;20092;-76
2023/07/19 13:59:56;;;;;;;3.92;2.30;;;;;;;;;;4994722;28;20034;-76
2023/07/19 14:02:22;;;;;;;4.82;1.90;;;;;;;;;;4990202;28;20049;-78
2023/07/19 14:04:49;;;;;;;5.07;2.22;;;;;;;;;;4989901;28;20430;-77
2023/07/19 14:07:15;;;;;;;6.47;2.25;;;;;;;;;;5007501;28;20054;-77
2023/07/19 14:09:41;;;;;;;7.15;3.35;;;;;;;;;;5007922;28;20050;-77
2023/07/19 14:12:08;;;;;;;6.32;2.80;;;;;;;;;;4989844;28;20046;-78
2023/07/19 14:14:34;;;;;;;6.72;2.65;;;;;;;;;;5002131;28;20056;-78
2023/07/19 14:17:00;;;;;;;8.27;3.13;;;;;;;;;;4988470;28;20061;-78
2023/07/19 14:19:27;;;;;;;6.05;2.70;;;;;;;;;;4987079;28;20141;-78
2023/07/19 14:21:53;;;;;;;8.63;3.20;;;;;;;;;;4988278;28;20058;-78
2023/07/19 14:24:19;;;;;;;8.30;3.17;;;;;;;;;;4979437;28;20046;-77
2023/07/19 14:26:45;;;;;;;6.70;3.10;;;;;;;;;;4989984;28;20065;-77
2023/07/19 14:29:11;;;;;;;8.20;2.83;;;;;;;;;;5007073;28;20050;-77
2023/07/19 14:31:38;;;;;;;7.45;2.90;;;;;;;;;;5007542;28;20065;-77
2023/07/19 14:34:04;;;;;;;8.40;2.80;;;;;;;;;;5006974;28;20083;-80
2023/07/19 14:36:30;;;;;;;6.93;2.95;;;;;;;;;;5005542;28;20046;-77
2023/07/19 14:38:56;;;;;;;6.13;2.88;;;;;;;;;;4983524;28;20183;-77
2023/07/19 14:41:23;;;;;;;11.73;3.10;;;;;;;;;;5000548;28;20054;-79
2023/07/19 14:43:49;;;;;;;6.18;2.90;;;;;;;;;;4997196;28;20049;-78
2023/07/19 14:46:15;;;;;;;6.93;2.70;;;;;;;;;;4991516;28;20134;-77
2023/07/19 14:48:41;;;;;;;6.78;2.97;;;;;;;;;;4970283;28;20057;-78
2023/07/19 14:51:07;;;;;;;5.60;3.00;;;;;;;;;;5053096;28;20125;-82
2023/07/19 14:53:34;;;;;;;7.78;2.72;;;;;;;;;;4989889;28;20152;-78
2023/07/19 14:56:00;;;;;;;3.83;2.38;;;;;;;;;;4990174;28;20210;-79
2023/07/19 14:58:26;;;;;;;6.10;2.92;;;;;;;;;;4998245;28;20122;-77